Time;durP1;ratioP1;P1;durP2;ratioP2;P2;SDS_P1;SDS_P2;PMS_P1;PMS_P2;Temp;Humidity;BMP_temperature;BMP_pressure;BME280_temperature;BME280_humidity;BME280_pressure;Samples;Min_cycle;Max_cycle;Signal;HPM_P1;HPM_P2
2022/05/13 00:00:32;;;;;;;0.70;0.43;;;;;;;;;;4970353;28;20064;-80
2022/05/13 00:02:58;;;;;;;0.43;0.43;;;;;;;;;;4986056;28;20042;-81
2022/05/13 00:05:24;;;;;;;0.50;0.32;;;;;;;;;;4984089;28;20506;-80
2022/05/13 00:07:49;;;;;;;0.30;0.30;;;;;;;;;;4987389;28;20034;-79
2022/05/13 00:10:15;;;;;;;0.30;0.20;;;;;;;;;;4970317;28;20088;-81
2022/05/13 00:12:41;;;;;;;1.42;0.40;;;;;;;;;;4970087;28;20041;-81
2022/05/13 00:15:10;;;;;;;1.20;0.73;;;;;;;;;;4965098;28;20083;-80
2022/05/13 00:17:35;;;;;;;0.10;0.10;;;;;;;;;;4970357;28;20629;-81
2022/05/13 00:20:02;;;;;;;0.20;0.20;;;;;;;;;;4986902;28;20038;-80
2022/05/13 00:22:28;;;;;;;1.30;0.60;;;;;;;;;;4985929;28;20363;-81
2022/05/13 00:24:54;;;;;;;0.70;0.43;;;;;;;;;;4970949;28;20042;-80
2022/05/13 00:27:20;;;;;;;0.20;0.20;;;;;;;;;;5003371;28;20104;-80
2022/05/13 00:29:45;;;;;;;0.55;0.30;;;;;;;;;;4985478;28;20046;-80
2022/05/13 00:32:11;;;;;;;0.28;0.28;;;;;;;;;;5003914;28;20100;-81
2022/05/13 00:34:36;;;;;;;1.02;0.57;;;;;;;;;;4970540;28;20437;-80
2022/05/13 00:37:02;;;;;;;0.30;0.25;;;;;;;;;;4984769;28;20057;-80
2022/05/13 00:39:27;;;;;;;0.50;0.40;;;;;;;;;;5005083;28;20499;-80
2022/05/13 00:41:56;;;;;;;0.43;0.30;;;;;;;;;;4980857;28;20034;-80
2022/05/13 00:44:22;;;;;;;0.70;0.43;;;;;;;;;;5003781;28;20030;-80
2022/05/13 00:46:48;;;;;;;0.63;0.43;;;;;;;;;;4974957;28;20041;-80
2022/05/13 00:49:14;;;;;;;0.50;0.47;;;;;;;;;;4985493;28;20046;-79
2022/05/13 00:51:45;;;;;;;0.47;0.38;;;;;;;;;;4970292;28;20066;-80
2022/05/13 00:54:13;;;;;;;0.73;0.35;;;;;;;;;;4985678;28;20497;-79
2022/05/13 00:56:42;;;;;;;0.55;0.38;;;;;;;;;;4976976;28;20041;-79
2022/05/13 00:59:10;;;;;;;0.50;0.40;;;;;;;;;;5003396;28;20436;-79
2022/05/13 01:01:36;;;;;;;1.20;0.50;;;;;;;;;;4981276;28;20141;-80
2022/05/13 01:04:05;;;;;;;0.45;0.30;;;;;;;;;;4970299;28;20136;-80
2022/05/13 01:06:31;;;;;;;0.28;0.28;;;;;;;;;;4985316;28;20062;-78
2022/05/13 01:08:56;;;;;;;0.30;0.20;;;;;;;;;;4970495;28;20065;-80
2022/05/13 01:11:34;;;;;;;0.20;0.20;;;;;;;;;;4985481;28;20576;-79
2022/05/13 01:14:04;;;;;;;0.47;0.40;;;;;;;;;;4986534;28;20088;-80
2022/05/13 01:18:04;;;;;;;0.30;0.30;;;;;;;;;;4992260;28;20030;-79
2022/05/13 01:19:15;;;;;;;0.38;0.30;;;;;;;;;;4988374;28;20811;-79
2022/05/13 01:21:40;;;;;;;0.55;0.40;;;;;;;;;;4970473;28;20049;-79
2022/05/13 01:24:06;;;;;;;0.40;0.32;;;;;;;;;;4985959;28;20042;-80
2022/05/13 01:26:34;;;;;;;0.63;0.32;;;;;;;;;;4971531;28;20121;-79
2022/05/13 01:29:00;;;;;;;0.52;0.40;;;;;;;;;;4974409;28;20066;-80
2022/05/13 01:31:30;;;;;;;0.68;0.57;;;;;;;;;;4985439;28;20030;-79
2022/05/13 01:33:56;;;;;;;0.30;0.28;;;;;;;;;;4986097;28;20054;-80
2022/05/13 01:36:21;;;;;;;0.50;0.30;;;;;;;;;;4970674;28;20118;-80
2022/05/13 01:38:47;;;;;;;0.50;0.40;;;;;;;;;;4985179;28;20030;-80
2022/05/13 01:41:13;;;;;;;0.68;0.38;;;;;;;;;;4970353;28;20034;-80
2022/05/13 01:43:39;;;;;;;0.43;0.32;;;;;;;;;;5002955;28;20503;-80
2022/05/13 01:46:05;;;;;;;0.45;0.30;;;;;;;;;;4969740;28;20038;-80
2022/05/13 01:48:31;;;;;;;0.95;0.70;;;;;;;;;;4970392;28;20037;-79
2022/05/13 01:50:56;;;;;;;0.38;0.30;;;;;;;;;;5003614;28;20099;-79
2022/05/13 01:53:22;;;;;;;0.63;0.52;;;;;;;;;;4985704;28;20473;-80
2022/05/13 01:55:47;;;;;;;0.70;0.50;;;;;;;;;;4968708;28;20057;-79
2022/05/13 01:58:15;;;;;;;1.15;0.82;;;;;;;;;;4969657;28;20042;-80
2022/05/13 02:00:42;;;;;;;0.30;0.25;;;;;;;;;;4975888;28;20068;-80
2022/05/13 02:05:52;;;;;;;0.40;0.30;;;;;;;;;;4990193;28;22309;-80
2022/05/13 02:08:17;;;;;;;0.30;0.30;;;;;;;;;;4988610;28;20041;-79
2022/05/13 02:10:43;;;;;;;0.20;0.20;;;;;;;;;;4969103;28;20049;-80
2022/05/13 02:13:08;;;;;;;0.50;0.35;;;;;;;;;;4988499;28;20045;-80
2022/05/13 02:15:34;;;;;;;0.70;0.50;;;;;;;;;;4987366;28;20595;-80
2022/05/13 02:17:59;;;;;;;0.32;0.22;;;;;;;;;;4988165;28;20070;-80
2022/05/13 02:20:24;;;;;;;0.73;0.55;;;;;;;;;;4978081;28;20049;-80
2022/05/13 02:22:50;;;;;;;0.30;0.30;;;;;;;;;;5004582;28;20046;-79
2022/05/13 02:25:15;;;;;;;1.27;0.68;;;;;;;;;;4971827;28;20449;-79
2022/05/13 02:27:40;;;;;;;0.73;0.50;;;;;;;;;;4972066;28;20038;-80
2022/05/13 02:30:07;;;;;;;0.30;0.30;;;;;;;;;;4986670;28;20087;-80
2022/05/13 02:32:32;;;;;;;0.93;0.60;;;;;;;;;;4976039;28;20042;-80
2022/05/13 02:34:58;;;;;;;1.02;0.57;;;;;;;;;;4972994;28;20037;-80
2022/05/13 02:37:23;;;;;;;0.60;0.40;;;;;;;;;;4986049;28;20061;-80
2022/05/13 02:39:48;;;;;;;0.68;0.55;;;;;;;;;;4972775;28;20042;-80
2022/05/13 02:42:14;;;;;;;4.47;0.95;;;;;;;;;;4986957;28;20073;-80
2022/05/13 02:44:40;;;;;;;0.52;0.32;;;;;;;;;;4974063;28;20066;-80
2022/05/13 02:47:05;;;;;;;0.30;0.30;;;;;;;;;;4974883;28;20049;-80
2022/05/13 02:49:31;;;;;;;0.63;0.45;;;;;;;;;;4988684;28;20409;-80
2022/05/13 02:51:56;;;;;;;0.60;0.40;;;;;;;;;;4987256;28;20529;-80
2022/05/13 02:54:21;;;;;;;0.85;0.73;;;;;;;;;;5005642;28;20042;-80
2022/05/13 02:56:46;;;;;;;0.88;0.57;;;;;;;;;;5004682;28;20099;-79
2022/05/13 02:59:12;;;;;;;0.43;0.40;;;;;;;;;;5005632;28;20444;-78
2022/05/13 03:01:37;;;;;;;0.68;0.50;;;;;;;;;;4986906;28;20046;-79
2022/05/13 03:04:03;;;;;;;0.52;0.40;;;;;;;;;;4987312;28;20088;-79
2022/05/13 03:06:29;;;;;;;1.13;0.85;;;;;;;;;;4970927;28;20074;-79
2022/05/13 03:08:54;;;;;;;0.95;0.65;;;;;;;;;;4983675;28;20062;-80
2022/05/13 03:11:23;;;;;;;0.50;0.38;;;;;;;;;;4974860;28;20392;-80
2022/05/13 03:13:49;;;;;;;0.75;0.43;;;;;;;;;;4988701;28;20034;-79
2022/05/13 03:16:22;;;;;;;1.27;0.47;;;;;;;;;;4986842;28;20076;-79
2022/05/13 03:18:49;;;;;;;0.30;0.30;;;;;;;;;;4977878;28;20412;-78
2022/05/13 03:21:15;;;;;;;1.10;0.60;;;;;;;;;;4970893;28;20053;-80
2022/05/13 03:23:43;;;;;;;3.17;0.52;;;;;;;;;;4986241;28;20042;-79
2022/05/13 03:26:09;;;;;;;0.20;0.20;;;;;;;;;;5004350;28;20081;-80
2022/05/13 03:28:35;;;;;;;0.68;0.38;;;;;;;;;;4970839;28;20045;-80
2022/05/13 03:31:01;;;;;;;0.43;0.40;;;;;;;;;;4984772;28;20065;-80
2022/05/13 03:33:26;;;;;;;1.48;1.08;;;;;;;;;;4985079;28;20069;-80
2022/05/13 03:35:51;;;;;;;0.90;0.52;;;;;;;;;;4985056;28;20161;-80
2022/05/13 03:38:17;;;;;;;0.52;0.43;;;;;;;;;;4986573;28;20048;-79
2022/05/13 03:40:42;;;;;;;0.95;0.70;;;;;;;;;;4969758;28;20042;-80
2022/05/13 03:43:08;;;;;;;0.70;0.50;;;;;;;;;;4986567;28;20069;-79
2022/05/13 03:45:34;;;;;;;0.60;0.40;;;;;;;;;;4974768;28;20030;-80
2022/05/13 03:47:59;;;;;;;1.08;0.75;;;;;;;;;;5002353;28;20045;-80
2022/05/13 03:50:26;;;;;;;4.28;0.95;;;;;;;;;;4986052;28;20034;-80
2022/05/13 03:52:51;;;;;;;0.55;0.50;;;;;;;;;;4986924;28;20042;-79
2022/05/13 03:55:16;;;;;;;0.40;0.30;;;;;;;;;;4987017;28;20037;-79
2022/05/13 03:57:42;;;;;;;0.70;0.50;;;;;;;;;;4970349;28;20033;-78
2022/05/13 04:00:09;;;;;;;0.52;0.40;;;;;;;;;;4985420;28;20033;-79
2022/05/13 04:02:35;;;;;;;1.15;0.88;;;;;;;;;;4983282;28;20512;-79
2022/05/13 04:10:28;;;;;;;0.60;0.40;;;;;;;;;;4988686;28;20057;-79
2022/05/13 04:18:21;;;;;;;0.90;0.63;;;;;;;;;;4987457;28;20129;-79
2022/05/13 04:20:47;;;;;;;0.70;0.50;;;;;;;;;;4985798;28;20026;-79
2022/05/13 04:23:13;;;;;;;3.22;0.90;;;;;;;;;;4986329;28;20038;-78
2022/05/13 04:25:38;;;;;;;0.88;0.65;;;;;;;;;;4984821;28;20052;-79
2022/05/13 04:28:04;;;;;;;0.90;0.60;;;;;;;;;;4986379;28;20045;-79
2022/05/13 04:30:29;;;;;;;1.15;0.60;;;;;;;;;;4985020;28;21303;-80
2022/05/13 04:32:55;;;;;;;1.65;1.10;;;;;;;;;;4980884;28;20042;-79
2022/05/13 04:35:20;;;;;;;0.90;0.70;;;;;;;;;;4970191;28;20947;-79
2022/05/13 04:37:45;;;;;;;0.80;0.50;;;;;;;;;;5002994;28;20501;-79
2022/05/13 04:40:11;;;;;;;1.85;0.80;;;;;;;;;;4985543;28;20830;-79
2022/05/13 04:42:51;;;;;;;1.35;0.73;;;;;;;;;;5000905;28;20045;-79
2022/05/13 04:45:24;;;;;;;0.60;0.40;;;;;;;;;;5003395;28;20034;-79
2022/05/13 04:50:38;;;;;;;0.55;0.47;;;;;;;;;;4987481;28;20173;-80
2022/05/13 04:53:05;;;;;;;0.55;0.50;;;;;;;;;;4985508;28;20188;-80
2022/05/13 04:55:30;;;;;;;0.40;0.30;;;;;;;;;;4961334;28;20038;-80
2022/05/13 04:57:56;;;;;;;0.75;0.60;;;;;;;;;;4968850;28;20096;-80
2022/05/13 05:00:21;;;;;;;1.98;0.60;;;;;;;;;;4984373;28;20041;-80
2022/05/13 05:02:46;;;;;;;1.55;0.88;;;;;;;;;;4984702;28;20049;-80
2022/05/13 05:05:12;;;;;;;1.80;1.05;;;;;;;;;;4969035;28;20425;-80
2022/05/13 05:07:37;;;;;;;1.02;0.70;;;;;;;;;;4982257;28;20125;-80
2022/05/13 05:10:03;;;;;;;1.80;0.98;;;;;;;;;;4970870;28;20031;-81
2022/05/13 05:12:28;;;;;;;0.43;0.35;;;;;;;;;;4966029;28;20034;-81
2022/05/13 05:14:54;;;;;;;0.77;0.50;;;;;;;;;;4980274;28;20119;-81
2022/05/13 05:17:19;;;;;;;0.73;0.47;;;;;;;;;;4963491;28;20510;-80
2022/05/13 05:19:44;;;;;;;0.57;0.45;;;;;;;;;;4966026;28;20124;-80
2022/05/13 05:22:09;;;;;;;1.60;0.90;;;;;;;;;;4980168;28;20035;-80
2022/05/13 05:24:35;;;;;;;1.00;0.40;;;;;;;;;;4973171;28;20409;-80
2022/05/13 05:27:00;;;;;;;0.75;0.52;;;;;;;;;;4980812;28;20046;-81
2022/05/13 05:29:25;;;;;;;1.60;0.80;;;;;;;;;;4982851;28;20132;-81
2022/05/13 05:31:51;;;;;;;0.40;0.30;;;;;;;;;;4979835;28;20092;-81
2022/05/13 05:34:19;;;;;;;4.30;0.65;;;;;;;;;;4979264;28;20045;-81
2022/05/13 05:36:44;;;;;;;1.17;0.85;;;;;;;;;;4952534;28;20173;-82
2022/05/13 05:39:10;;;;;;;1.73;1.05;;;;;;;;;;4969305;28;20117;-80
2022/05/13 05:41:36;;;;;;;1.30;0.90;;;;;;;;;;4983717;28;20509;-81
2022/05/13 05:44:01;;;;;;;1.60;0.90;;;;;;;;;;4985943;28;20034;-82
2022/05/13 05:46:27;;;;;;;1.80;1.20;;;;;;;;;;4969662;28;20049;-80
2022/05/13 05:48:52;;;;;;;0.95;0.57;;;;;;;;;;4981851;28;20038;-80
2022/05/13 05:51:17;;;;;;;1.10;0.65;;;;;;;;;;4984636;28;20534;-81
2022/05/13 05:59:11;;;;;;;0.40;0.30;;;;;;;;;;4985194;28;20122;-81
2022/05/13 06:01:36;;;;;;;0.90;0.63;;;;;;;;;;4985778;28;20090;-82
2022/05/13 06:04:02;;;;;;;2.35;0.82;;;;;;;;;;4978570;28;20513;-81
2022/05/13 06:06:28;;;;;;;1.13;0.68;;;;;;;;;;4977398;28;20053;-82
2022/05/13 06:08:55;;;;;;;0.98;0.65;;;;;;;;;;4969873;28;20045;-80
2022/05/13 06:11:23;;;;;;;1.10;0.75;;;;;;;;;;4969360;28;20085;-81
2022/05/13 06:13:50;;;;;;;1.88;0.95;;;;;;;;;;4974992;28;20125;-80
2022/05/13 06:16:16;;;;;;;1.13;0.73;;;;;;;;;;5000180;28;20057;-82
2022/05/13 06:18:41;;;;;;;0.77;0.55;;;;;;;;;;4985526;28;20038;-81
2022/05/13 06:21:06;;;;;;;1.52;0.80;;;;;;;;;;4975575;28;20038;-81
2022/05/13 06:23:32;;;;;;;1.63;0.80;;;;;;;;;;5000839;28;20891;-80
2022/05/13 06:25:58;;;;;;;2.35;0.82;;;;;;;;;;4968420;28;20548;-81
2022/05/13 06:28:23;;;;;;;0.88;0.63;;;;;;;;;;4969768;28;20494;-81
2022/05/13 06:30:48;;;;;;;2.75;0.98;;;;;;;;;;4969184;28;21181;-82
2022/05/13 06:33:14;;;;;;;0.77;0.50;;;;;;;;;;4982711;28;20377;-80
2022/05/13 06:35:39;;;;;;;2.03;0.88;;;;;;;;;;4968365;28;20038;-82
2022/05/13 06:38:04;;;;;;;0.93;0.60;;;;;;;;;;4969223;28;20031;-80
2022/05/13 06:40:30;;;;;;;1.20;0.73;;;;;;;;;;4983259;28;20030;-81
2022/05/13 06:42:55;;;;;;;0.88;0.52;;;;;;;;;;4984947;28;20061;-82
2022/05/13 06:45:21;;;;;;;0.93;0.50;;;;;;;;;;4971220;28;20117;-81
2022/05/13 06:47:47;;;;;;;2.42;0.55;;;;;;;;;;4983115;28;20121;-82
2022/05/13 06:50:16;;;;;;;0.80;0.40;;;;;;;;;;4974871;28;20077;-81
2022/05/13 06:52:42;;;;;;;1.48;0.70;;;;;;;;;;4968772;28;20049;-82
2022/05/13 06:55:09;;;;;;;1.25;0.55;;;;;;;;;;4980285;28;20042;-83
2022/05/13 06:57:34;;;;;;;0.57;0.40;;;;;;;;;;4967510;28;20498;-83
2022/05/13 06:59:59;;;;;;;0.93;0.50;;;;;;;;;;4973580;28;20042;-82
2022/05/13 07:02:27;;;;;;;0.73;0.50;;;;;;;;;;4967245;28;20445;-82
2022/05/13 07:04:52;;;;;;;1.15;0.57;;;;;;;;;;4981450;28;20093;-82
2022/05/13 07:07:17;;;;;;;0.32;0.30;;;;;;;;;;4979784;28;20490;-83
2022/05/13 07:09:43;;;;;;;1.27;0.75;;;;;;;;;;4984224;28;20101;-83
2022/05/13 07:12:09;;;;;;;1.30;0.85;;;;;;;;;;4972717;28;20074;-82
2022/05/13 07:14:35;;;;;;;1.25;0.73;;;;;;;;;;4975265;28;20053;-82
2022/05/13 07:17:01;;;;;;;1.38;0.68;;;;;;;;;;4967462;28;20034;-82
2022/05/13 07:19:27;;;;;;;2.55;0.70;;;;;;;;;;4968410;28;20393;-83
2022/05/13 07:21:52;;;;;;;1.17;0.60;;;;;;;;;;4958690;28;20046;-82
2022/05/13 07:24:17;;;;;;;1.25;0.60;;;;;;;;;;4984792;28;20035;-87
2022/05/13 07:26:42;;;;;;;1.42;0.73;;;;;;;;;;4967232;28;20042;-82
2022/05/13 07:29:08;;;;;;;1.00;0.55;;;;;;;;;;4967334;28;20038;-82
2022/05/13 07:31:34;;;;;;;1.30;0.60;;;;;;;;;;4983822;28;20126;-81
2022/05/13 07:33:59;;;;;;;0.63;0.47;;;;;;;;;;4968769;28;20041;-82
2022/05/13 07:36:25;;;;;;;4.38;0.98;;;;;;;;;;4981268;28;20038;-81
2022/05/13 07:41:34;;;;;;;2.00;0.98;;;;;;;;;;4982364;28;20189;-83
2022/05/13 07:43:59;;;;;;;0.77;0.50;;;;;;;;;;4971196;28;20121;-81
2022/05/13 07:46:24;;;;;;;2.45;1.25;;;;;;;;;;4966610;28;20039;-82
2022/05/13 07:48:51;;;;;;;0.90;0.60;;;;;;;;;;4966772;28;20053;-80
2022/05/13 07:51:17;;;;;;;1.85;0.82;;;;;;;;;;4982128;28;20055;-80
2022/05/13 07:53:42;;;;;;;1.67;0.95;;;;;;;;;;4975292;28;20522;-82
2022/05/13 07:56:08;;;;;;;1.85;1.02;;;;;;;;;;4979209;28;20038;-80
2022/05/13 07:58:34;;;;;;;1.55;0.77;;;;;;;;;;4959702;28;20037;-82
2022/05/13 08:01:00;;;;;;;0.73;0.50;;;;;;;;;;4982933;28;20031;-80
2022/05/13 08:03:26;;;;;;;3.15;1.08;;;;;;;;;;4970937;28;20439;-81
2022/05/13 08:05:53;;;;;;;1.40;0.88;;;;;;;;;;4985619;28;20385;-80
2022/05/13 08:08:23;;;;;;;3.00;1.20;;;;;;;;;;4981068;28;20040;-82
2022/05/13 08:10:52;;;;;;;2.22;1.23;;;;;;;;;;4986234;28;20041;-82
2022/05/13 08:13:17;;;;;;;2.35;1.08;;;;;;;;;;4971292;28;20383;-81
2022/05/13 08:15:43;;;;;;;1.90;1.25;;;;;;;;;;4984704;28;20099;-81
2022/05/13 08:18:08;;;;;;;0.50;0.30;;;;;;;;;;4985947;28;20037;-80
2022/05/13 08:20:35;;;;;;;1.08;0.60;;;;;;;;;;4971794;28;20062;-82
2022/05/13 08:23:00;;;;;;;0.97;0.70;;;;;;;;;;4970283;28;20040;-80
2022/05/13 08:25:26;;;;;;;1.48;0.90;;;;;;;;;;4961934;28;20489;-81
2022/05/13 08:27:51;;;;;;;0.90;0.47;;;;;;;;;;4968029;28;20167;-81
2022/05/13 08:30:17;;;;;;;1.73;0.90;;;;;;;;;;4983967;28;20041;-81
2022/05/13 08:32:43;;;;;;;0.35;0.30;;;;;;;;;;4984875;28;20042;-81
2022/05/13 08:35:09;;;;;;;1.23;0.52;;;;;;;;;;4980247;28;20136;-81
2022/05/13 08:37:48;;;;;;;1.33;0.73;;;;;;;;;;4968504;28;20486;-82
2022/05/13 08:40:54;;;;;;;2.95;0.80;;;;;;;;;;4972756;28;20037;-81
2022/05/13 08:43:21;;;;;;;1.23;0.70;;;;;;;;;;4965320;28;20508;-81
2022/05/13 08:45:56;;;;;;;1.50;0.70;;;;;;;;;;4969095;28;20751;-81
2022/05/13 08:48:43;;;;;;;1.15;0.70;;;;;;;;;;4985144;28;20536;-81
2022/05/13 08:51:27;;;;;;;0.98;0.50;;;;;;;;;;4974391;28;20210;-82
2022/05/13 08:53:57;;;;;;;1.92;1.02;;;;;;;;;;5001162;28;20038;-81
2022/05/13 08:56:29;;;;;;;1.38;0.90;;;;;;;;;;4985036;28;20038;-81
2022/05/13 08:59:15;;;;;;;0.80;0.60;;;;;;;;;;4958681;28;20037;-82
2022/05/13 09:01:46;;;;;;;4.68;1.48;;;;;;;;;;4959549;28;20532;-81
2022/05/13 09:04:27;;;;;;;1.10;0.82;;;;;;;;;;4984431;28;20041;-82
2022/05/13 09:06:56;;;;;;;1.30;0.93;;;;;;;;;;4958384;28;20042;-80
2022/05/13 09:09:21;;;;;;;0.80;0.50;;;;;;;;;;4976912;28;20497;-82
2022/05/13 09:11:48;;;;;;;1.02;0.63;;;;;;;;;;4973739;28;20179;-82
2022/05/13 09:14:44;;;;;;;1.13;0.70;;;;;;;;;;4976976;28;20045;-81
2022/05/13 09:17:28;;;;;;;2.25;1.00;;;;;;;;;;4963269;28;20136;-81
2022/05/13 09:19:58;;;;;;;1.02;0.60;;;;;;;;;;4990098;28;20030;-81
2022/05/13 09:22:42;;;;;;;0.95;0.55;;;;;;;;;;4977077;28;20038;-81
2022/05/13 09:25:16;;;;;;;0.57;0.40;;;;;;;;;;4979107;28;20034;-83
2022/05/13 09:27:43;;;;;;;0.85;0.40;;;;;;;;;;4972495;28;20562;-81
2022/05/13 09:30:09;;;;;;;0.85;0.20;;;;;;;;;;4989317;28;20036;-82
2022/05/13 09:32:34;;;;;;;0.82;0.30;;;;;;;;;;4981868;28;20046;-81
2022/05/13 09:35:18;;;;;;;1.27;0.38;;;;;;;;;;4976769;28;20076;-82
2022/05/13 09:37:44;;;;;;;1.63;0.65;;;;;;;;;;4979139;28;20169;-81
2022/05/13 09:40:12;;;;;;;0.43;0.20;;;;;;;;;;4988527;28;20560;-80
2022/05/13 09:42:43;;;;;;;1.48;0.75;;;;;;;;;;4989422;28;20493;-81
2022/05/13 09:45:25;;;;;;;0.75;0.45;;;;;;;;;;4989371;28;20037;-82
2022/05/13 09:48:09;;;;;;;0.77;0.40;;;;;;;;;;4963581;28;20042;-82
2022/05/13 09:50:41;;;;;;;1.10;0.57;;;;;;;;;;5005848;28;20528;-81
2022/05/13 09:53:15;;;;;;;0.93;0.40;;;;;;;;;;4983278;28;20034;-82
2022/05/13 09:55:41;;;;;;;0.85;0.50;;;;;;;;;;4987733;28;20041;-81
2022/05/13 09:58:22;;;;;;;0.08;0.08;;;;;;;;;;4961490;28;20042;-82
2022/05/13 10:00:51;;;;;;;0.90;0.45;;;;;;;;;;5006386;28;20037;-80
2022/05/13 10:03:25;;;;;;;0.10;0.05;;;;;;;;;;4987418;28;20505;-81
2022/05/13 10:06:11;;;;;;;0.50;0.20;;;;;;;;;;4987031;28;20077;-83
2022/05/13 10:08:41;;;;;;;0.63;0.30;;;;;;;;;;5005441;28;20512;-83
2022/05/13 10:14:03;;;;;;;0.20;0.15;;;;;;;;;;5003541;28;20041;-83
2022/05/13 10:16:38;;;;;;;0.40;0.20;;;;;;;;;;4963342;28;20840;-82
2022/05/13 10:19:11;;;;;;;0.90;0.38;;;;;;;;;;4970218;28;20049;-83
2022/05/13 10:22:03;;;;;;;0.90;0.45;;;;;;;;;;4977491;28;20062;-84
2022/05/13 10:24:47;;;;;;;1.45;0.40;;;;;;;;;;4988862;28;20501;-82
2022/05/13 10:27:27;;;;;;;1.98;0.85;;;;;;;;;;5004700;28;20115;-80
2022/05/13 10:29:57;;;;;;;3.17;0.50;;;;;;;;;;4985703;28;20581;-82
2022/05/13 10:32:37;;;;;;;0.85;0.40;;;;;;;;;;4968491;28;20042;-84
2022/05/13 10:35:07;;;;;;;0.25;0.20;;;;;;;;;;4970201;28;20509;-83
2022/05/13 10:38:10;;;;;;;2.53;0.52;;;;;;;;;;4984193;28;20040;-82
2022/05/13 10:40:39;;;;;;;2.05;0.30;;;;;;;;;;5002610;28;20084;-82
2022/05/13 10:43:15;;;;;;;0.65;0.30;;;;;;;;;;4970689;28;20044;-81
2022/05/13 10:45:42;;;;;;;0.28;0.10;;;;;;;;;;4987785;28;20060;-81
2022/05/13 10:48:28;;;;;;;1.13;0.30;;;;;;;;;;4972938;28;20045;-83
2022/05/13 10:51:05;;;;;;;0.50;0.30;;;;;;;;;;4972455;28;20041;-83
2022/05/13 10:53:39;;;;;;;0.17;0.10;;;;;;;;;;5005001;28;20042;-82
2022/05/13 10:56:13;;;;;;;0.35;0.22;;;;;;;;;;4990916;28;20042;-81
2022/05/13 10:59:01;;;;;;;0.55;0.10;;;;;;;;;;4971178;28;20047;-84
2022/05/13 11:01:46;;;;;;;0.38;0.20;;;;;;;;;;4993496;28;20053;-82
2022/05/13 11:04:24;;;;;;;1.67;0.75;;;;;;;;;;4981438;28;20069;-83
2022/05/13 11:07:29;;;;;;;0.25;0.10;;;;;;;;;;4983203;28;20073;-82
2022/05/13 11:10:08;;;;;;;0.00;0.00;;;;;;;;;;4973681;28;20050;-81
2022/05/13 11:12:51;;;;;;;0.52;0.20;;;;;;;;;;4983692;28;20049;-82
2022/05/13 11:15:35;;;;;;;2.20;0.45;;;;;;;;;;4999938;28;20030;-84
2022/05/13 11:18:09;;;;;;;1.52;0.50;;;;;;;;;;5000207;28;20031;-83
2022/05/13 11:21:07;;;;;;;0.10;0.00;;;;;;;;;;4981860;28;20394;-83
2022/05/13 11:25:54;;;;;;;0.25;0.20;;;;;;;;;;4972143;28;20034;-81
2022/05/13 11:26:38;;;;;;;0.95;0.30;;;;;;;;;;4984039;28;20038;-82
2022/05/13 11:29:15;;;;;;;0.25;0.10;;;;;;;;;;4999423;28;20045;-82
2022/05/13 11:31:52;;;;;;;0.40;0.20;;;;;;;;;;4967004;28;20093;-82
2022/05/13 11:34:55;;;;;;;6.32;0.47;;;;;;;;;;4965714;28;20125;-84
2022/05/13 11:37:21;;;;;;;0.95;0.32;;;;;;;;;;4970269;28;20034;-82
2022/05/13 11:39:57;;;;;;;1.45;0.40;;;;;;;;;;4968034;28;20113;-83
2022/05/13 11:46:09;;;;;;;0.47;0.28;;;;;;;;;;4980876;28;20073;-81
2022/05/13 11:48:44;;;;;;;0.38;0.20;;;;;;;;;;4966915;28;20615;-80
2022/05/13 11:51:14;;;;;;;0.50;0.45;;;;;;;;;;4958274;28;20501;-80
2022/05/13 11:53:43;;;;;;;1.98;1.05;;;;;;;;;;4966976;28;20038;-81
2022/05/13 11:56:34;;;;;;;1.23;0.38;;;;;;;;;;4982949;28;20050;-83
2022/05/13 11:59:22;;;;;;;1.20;0.40;;;;;;;;;;4965547;28;20045;-82
2022/05/13 12:01:51;;;;;;;0.52;0.25;;;;;;;;;;4982894;28;20161;-82
2022/05/13 12:04:17;;;;;;;0.45;0.30;;;;;;;;;;4983151;28;20038;-82
2022/05/13 12:06:49;;;;;;;0.40;0.20;;;;;;;;;;4984259;28;20527;-80
2022/05/13 12:09:17;;;;;;;0.70;0.40;;;;;;;;;;4984519;28;20046;-80
2022/05/13 12:11:53;;;;;;;0.20;0.10;;;;;;;;;;4982924;28;20046;-81
2022/05/13 12:14:24;;;;;;;0.70;0.37;;;;;;;;;;4962721;28;20044;-83
2022/05/13 12:17:04;;;;;;;0.95;0.30;;;;;;;;;;4973381;28;20093;-81
2022/05/13 12:19:48;;;;;;;0.35;0.30;;;;;;;;;;4982770;28;20038;-82
2022/05/13 12:22:34;;;;;;;0.35;0.20;;;;;;;;;;4971865;28;20755;-83
2022/05/13 12:25:31;;;;;;;0.30;0.20;;;;;;;;;;4999302;28;20125;-81
2022/05/13 12:28:21;;;;;;;1.55;0.50;;;;;;;;;;4963199;28;20045;-82
2022/05/13 12:30:51;;;;;;;0.63;0.40;;;;;;;;;;4981573;28;20474;-83
2022/05/13 12:33:19;;;;;;;9.73;0.50;;;;;;;;;;4964987;28;20038;-83
2022/05/13 12:39:03;;;;;;;0.63;0.20;;;;;;;;;;4975211;28;20112;-82
2022/05/13 12:42:09;;;;;;;0.82;0.30;;;;;;;;;;4965853;28;20065;-81
2022/05/13 12:44:42;;;;;;;0.60;0.40;;;;;;;;;;4971695;28;20054;-82
2022/05/13 12:47:13;;;;;;;0.00;0.00;;;;;;;;;;4981519;28;20109;-81
2022/05/13 12:49:56;;;;;;;0.50;0.30;;;;;;;;;;4984777;28;20050;-83
2022/05/13 12:52:26;;;;;;;0.47;0.28;;;;;;;;;;4997803;28;20045;-84
2022/05/13 12:54:53;;;;;;;0.30;0.22;;;;;;;;;;4984410;28;20374;-83
2022/05/13 12:57:25;;;;;;;0.80;0.45;;;;;;;;;;4981750;28;20182;-82
2022/05/13 12:59:53;;;;;;;0.10;0.08;;;;;;;;;;4982929;28;20502;-82
2022/05/13 13:02:22;;;;;;;0.47;0.30;;;;;;;;;;4968987;28;20053;-83
2022/05/13 13:05:02;;;;;;;0.65;0.30;;;;;;;;;;4981387;28;20049;-84
2022/05/13 13:07:32;;;;;;;1.15;0.57;;;;;;;;;;4965405;28;20034;-81
2022/05/13 13:10:01;;;;;;;2.33;0.85;;;;;;;;;;4981218;28;20046;-83
2022/05/13 13:12:37;;;;;;;0.45;0.30;;;;;;;;;;4981527;28;20030;-83
2022/05/13 13:15:14;;;;;;;0.20;0.20;;;;;;;;;;4982296;28;20502;-82
2022/05/13 13:17:44;;;;;;;0.45;0.32;;;;;;;;;;4960608;28;20038;-82
2022/05/13 13:20:13;;;;;;;1.08;0.22;;;;;;;;;;4959674;28;20046;-83
2022/05/13 13:22:43;;;;;;;0.85;0.43;;;;;;;;;;4982160;28;20145;-83
2022/05/13 13:25:13;;;;;;;0.20;0.10;;;;;;;;;;4965358;28;20071;-80
2022/05/13 13:27:39;;;;;;;0.32;0.30;;;;;;;;;;4980861;28;20042;-80
2022/05/13 13:30:05;;;;;;;0.08;0.08;;;;;;;;;;4964245;28;20047;-80
2022/05/13 13:32:31;;;;;;;0.75;0.38;;;;;;;;;;4970462;28;20038;-80
2022/05/13 13:35:01;;;;;;;0.20;0.20;;;;;;;;;;4966395;28;20540;-81
2022/05/13 13:37:32;;;;;;;0.85;0.55;;;;;;;;;;4969772;28;20512;-81
2022/05/13 13:40:12;;;;;;;0.93;0.55;;;;;;;;;;4968901;28;20034;-82
2022/05/13 13:42:38;;;;;;;0.25;0.17;;;;;;;;;;4963332;28;20385;-81
2022/05/13 13:45:16;;;;;;;1.48;0.17;;;;;;;;;;4962836;28;20490;-79
2022/05/13 13:47:47;;;;;;;0.20;0.17;;;;;;;;;;4965724;28;20073;-81
2022/05/13 13:50:15;;;;;;;0.45;0.25;;;;;;;;;;4981978;28;20038;-81
2022/05/13 13:52:42;;;;;;;0.08;0.08;;;;;;;;;;4980243;28;20058;-79
2022/05/13 13:55:10;;;;;;;0.00;0.00;;;;;;;;;;4983708;28;20046;-80
2022/05/13 13:58:13;;;;;;;0.28;0.20;;;;;;;;;;4967660;28;20806;-79
2022/05/13 14:00:43;;;;;;;0.20;0.10;;;;;;;;;;4985876;28;20108;-79
2022/05/13 14:03:11;;;;;;;0.77;0.20;;;;;;;;;;4992968;28;20042;-81
2022/05/13 14:05:39;;;;;;;2.20;0.47;;;;;;;;;;4992043;28;20057;-80
2022/05/13 14:08:06;;;;;;;0.20;0.15;;;;;;;;;;5000192;28;20070;-80
2022/05/13 14:10:46;;;;;;;0.20;0.17;;;;;;;;;;4977868;28;20030;-81
2022/05/13 14:13:11;;;;;;;0.30;0.30;;;;;;;;;;4975670;28;20293;-82
2022/05/13 14:15:42;;;;;;;0.38;0.22;;;;;;;;;;4985131;28;20045;-81
2022/05/13 14:18:11;;;;;;;0.52;0.30;;;;;;;;;;4985289;28;20023;-82
2022/05/13 14:20:38;;;;;;;1.08;0.40;;;;;;;;;;4967628;28;20065;-81
2022/05/13 14:23:05;;;;;;;0.45;0.25;;;;;;;;;;4983644;28;20042;-80
2022/05/13 14:25:36;;;;;;;0.40;0.20;;;;;;;;;;4985288;28;20046;-82
2022/05/13 14:28:03;;;;;;;0.43;0.22;;;;;;;;;;4983269;28;20091;-82
2022/05/13 14:30:33;;;;;;;0.10;0.10;;;;;;;;;;4985196;28;20480;-82
2022/05/13 14:32:59;;;;;;;1.25;0.57;;;;;;;;;;4978476;28;20065;-83
2022/05/13 14:35:29;;;;;;;0.28;0.20;;;;;;;;;;4984060;28;20163;-82
2022/05/13 14:37:58;;;;;;;0.30;0.20;;;;;;;;;;4985048;28;20038;-81
2022/05/13 14:40:32;;;;;;;0.22;0.10;;;;;;;;;;4986102;28;20387;-83
2022/05/13 14:43:04;;;;;;;0.17;0.10;;;;;;;;;;4980186;28;20137;-83
2022/05/13 14:45:33;;;;;;;0.17;0.10;;;;;;;;;;4983679;28;20046;-82
2022/05/13 14:48:23;;;;;;;0.10;0.10;;;;;;;;;;4967779;28;20057;-80
2022/05/13 14:51:16;;;;;;;0.45;0.20;;;;;;;;;;4984920;28;20405;-82
2022/05/13 14:53:50;;;;;;;0.82;0.30;;;;;;;;;;4984251;28;20038;-80
2022/05/13 14:56:16;;;;;;;1.75;0.60;;;;;;;;;;4984172;28;20447;-80
2022/05/13 14:58:53;;;;;;;2.40;0.57;;;;;;;;;;4969314;28;20062;-78
2022/05/13 15:01:27;;;;;;;0.25;0.25;;;;;;;;;;4968780;28;20100;-80
2022/05/13 15:03:56;;;;;;;0.57;0.22;;;;;;;;;;4985075;28;20054;-83
2022/05/13 15:06:35;;;;;;;0.30;0.22;;;;;;;;;;4968533;28;20038;-84
2022/05/13 15:09:08;;;;;;;0.57;0.40;;;;;;;;;;4986050;28;20054;-83
2022/05/13 15:11:34;;;;;;;0.43;0.20;;;;;;;;;;4984333;28;20426;-82
2022/05/13 15:14:00;;;;;;;0.05;0.00;;;;;;;;;;4975307;28;20152;-83
2022/05/13 15:16:28;;;;;;;6.90;0.57;;;;;;;;;;4966890;28;20049;-80
2022/05/13 15:18:53;;;;;;;0.65;0.20;;;;;;;;;;4984173;28;20112;-83
2022/05/13 15:21:19;;;;;;;3.78;0.43;;;;;;;;;;4972099;28;20394;-81
2022/05/13 15:23:44;;;;;;;0.03;0.03;;;;;;;;;;4982764;28;20897;-80
2022/05/13 15:26:12;;;;;;;1.13;0.40;;;;;;;;;;4966457;28;20038;-84
2022/05/13 15:28:37;;;;;;;;;;;;;;;;;;4984173;28;20756;-83
2022/05/13 15:31:02;;;;;;;0.00;0.00;;;;;;;;;;4983106;28;19917;-84
2022/05/13 15:33:27;;;;;;;0.00;0.00;;;;;;;;;;4967422;28;20069;-84